Time;durP1;ratioP1;P1;durP2;ratioP2;P2;SDS_P1;SDS_P2;PMS_P1;PMS_P2;Temp;Humidity;BMP_temperature;BMP_pressure;BME280_temperature;BME280_humidity;BME280_pressure;Samples;Min_cycle;Max_cycle;Signal;HPM_P1;HPM_P2
2022/12/27 00:00:53;;;;;;;5.15;1.77;;;;;;;4.83;100.00;101218.84;5006400;28;20198;-72
2022/12/27 00:03:20;;;;;;;4.18;2.50;;;;;;;4.88;100.00;101208.13;5014138;28;20208;-73
2022/12/27 00:05:47;;;;;;;6.22;2.05;;;;;;;4.86;100.00;101217.94;5001604;28;20579;-73
2022/12/27 00:08:16;;;;;;;2.83;2.00;;;;;;;4.82;100.00;101217.09;4993228;28;20250;-72
2022/12/27 00:10:42;;;;;;;2.88;1.73;;;;;;;4.84;100.00;101233.06;4994047;28;20206;-73
2022/12/27 00:13:09;;;;;;;2.90;2.08;;;;;;;4.84;100.00;101227.75;4999268;28;20217;-73
2022/12/27 00:15:36;;;;;;;3.03;1.92;;;;;;;4.78;100.00;101226.91;5000276;28;20277;-73
2022/12/27 00:18:03;;;;;;;3.20;1.70;;;;;;;4.76;100.00;101230.47;4995703;28;20219;-73
2022/12/27 00:20:29;;;;;;;2.97;1.90;;;;;;;4.73;100.00;101227.84;5010014;28;20203;-72
2022/12/27 00:22:56;;;;;;;3.25;1.75;;;;;;;4.74;100.00;101232.28;4993982;28;20665;-73
2022/12/27 00:25:23;;;;;;;2.95;1.95;;;;;;;4.70;100.00;101228.72;4993526;28;20214;-76
2022/12/27 00:27:50;;;;;;;3.67;1.95;;;;;;;4.75;100.00;101232.28;5008500;28;20727;-72
2022/12/27 00:30:16;;;;;;;4.32;1.88;;;;;;;4.71;100.00;101234.97;5007189;28;20190;-72
2022/12/27 00:32:43;;;;;;;4.47;2.15;;;;;;;4.67;100.00;101227.91;5013036;28;20202;-73
2022/12/27 00:35:09;;;;;;;4.13;2.20;;;;;;;4.69;100.00;101226.97;5013107;28;20213;-72
2022/12/27 00:37:36;;;;;;;3.10;2.13;;;;;;;4.69;100.00;101243.00;5009878;28;20228;-73
2022/12/27 00:40:02;;;;;;;5.38;2.10;;;;;;;4.67;100.00;101247.44;4993422;28;20206;-73
2022/12/27 00:42:30;;;;;;;5.25;2.47;;;;;;;4.66;100.00;101242.13;4994141;28;20566;-74
2022/12/27 00:44:57;;;;;;;10.95;2.40;;;;;;;4.64;100.00;101239.47;5007083;28;20203;-73
2022/12/27 00:47:23;;;;;;;6.38;2.85;;;;;;;4.65;100.00;101248.38;5003506;28;20222;-73
2022/12/27 00:49:50;;;;;;;3.85;2.30;;;;;;;4.62;100.00;101251.94;4996632;28;20190;-73
2022/12/27 00:52:16;;;;;;;3.47;2.53;;;;;;;4.55;100.00;101251.09;5000083;28;20560;-74
2022/12/27 00:54:43;;;;;;;4.22;2.35;;;;;;;4.52;100.00;101255.56;5011824;28;20199;-72
2022/12/27 00:57:09;;;;;;;3.10;2.30;;;;;;;4.52;100.00;101255.56;5001422;28;20218;-73
2022/12/27 00:59:37;;;;;;;8.55;2.83;;;;;;;4.56;100.00;101251.97;4997474;28;20247;-73
2022/12/27 01:02:04;;;;;;;2.30;1.67;;;;;;;4.51;100.00;101256.47;4994059;28;20206;-73
2022/12/27 01:04:30;;;;;;;5.25;2.42;;;;;;;4.50;100.00;101257.34;4994634;28;20203;-72
2022/12/27 01:06:57;;;;;;;3.58;2.35;;;;;;;4.47;100.00;101266.25;5004545;28;20219;-74
2022/12/27 01:09:23;;;;;;;3.80;1.77;;;;;;;4.48;100.00;101269.84;5007193;28;20203;-72
2022/12/27 01:11:50;;;;;;;2.75;1.80;;;;;;;4.47;100.00;101268.94;4997624;28;20230;-72
2022/12/27 01:14:16;;;;;;;5.30;2.60;;;;;;;4.48;100.00;101286.72;5017900;28;20195;-73
2022/12/27 01:16:44;;;;;;;11.98;2.10;;;;;;;4.47;100.00;101284.94;5017979;28;20581;-72
2022/12/27 01:19:10;;;;;;;3.65;2.40;;;;;;;4.41;100.00;101281.41;5001866;28;20203;-73
2022/12/27 01:21:37;;;;;;;5.00;2.38;;;;;;;4.38;100.00;101285.88;5018252;28;20206;-73
2022/12/27 01:24:05;;;;;;;4.10;1.92;;;;;;;4.33;100.00;101290.34;5014318;28;20202;-73
2022/12/27 01:26:32;;;;;;;3.25;1.80;;;;;;;4.31;100.00;101286.81;5005106;28;20222;-74
2022/12/27 01:28:58;;;;;;;3.40;1.55;;;;;;;4.31;100.00;101289.47;5003754;28;20564;-72
2022/12/27 01:31:27;;;;;;;2.72;1.52;;;;;;;4.30;100.00;101297.50;4995843;28;20203;-73
2022/12/27 01:33:57;;;;;;;4.78;1.98;;;;;;;4.29;100.00;101307.25;4994564;28;20211;-73
2022/12/27 01:36:25;;;;;;;3.20;2.00;;;;;;;4.17;100.00;101302.88;5011574;28;20199;-73
2022/12/27 01:38:51;;;;;;;3.30;2.00;;;;;;;4.18;100.00;101307.34;5016827;28;20206;-73
2022/12/27 01:44:37;;;;;;;5.50;2.22;;;;;;;4.16;100.00;101319.78;5017109;28;20256;-74
2022/12/27 01:47:12;;;;;;;2.20;1.50;;;;;;;4.13;100.00;101317.09;5007880;28;20305;-73
2022/12/27 01:49:45;;;;;;;3.72;2.10;;;;;;;4.07;100.00;101318.91;5015622;28;20679;-72
2022/12/27 01:52:12;;;;;;;2.10;1.42;;;;;;;4.04;100.00;101319.81;5002415;28;20191;-72
2022/12/27 01:54:40;;;;;;;3.25;1.75;;;;;;;4.02;100.00;101320.72;5001639;28;20198;-73
2022/12/27 01:57:06;;;;;;;6.40;2.30;;;;;;;3.95;100.00;101326.06;5010432;28;20305;-73
2022/12/27 01:59:34;;;;;;;3.65;1.75;;;;;;;3.99;100.00;101318.97;5016309;28;20203;-72
2022/12/27 02:02:00;;;;;;;4.65;1.80;;;;;;;3.96;100.00;101318.97;5015740;28;20222;-72
2022/12/27 02:04:30;;;;;;;3.22;1.70;;;;;;;3.93;100.00;101329.63;5014469;28;20210;-72
2022/12/27 02:07:00;;;;;;;4.88;1.80;;;;;;;3.94;100.00;101334.97;4996862;28;20230;-73
2022/12/27 02:09:33;;;;;;;3.40;1.60;;;;;;;3.92;100.00;101336.75;5000575;28;20191;-73
2022/12/27 02:12:00;;;;;;;3.58;1.80;;;;;;;3.91;100.00;101340.31;5003780;28;20202;-73
2022/12/27 02:14:29;;;;;;;3.28;1.50;;;;;;;3.86;100.00;101346.53;5015838;28;20199;-72
2022/12/27 02:16:57;;;;;;;2.45;1.63;;;;;;;3.81;100.00;101340.34;5010898;28;20219;-73
2022/12/27 02:19:33;;;;;;;7.38;2.35;;;;;;;3.75;100.00;101347.47;5015013;28;20199;-74
2022/12/27 02:22:19;;;;;;;4.95;1.75;;;;;;;3.82;100.00;101347.44;5015967;28;20198;-72
2022/12/27 02:24:59;;;;;;;3.25;1.92;;;;;;;3.73;100.00;101349.25;5011441;28;20199;-72
2022/12/27 02:27:51;;;;;;;4.10;1.55;;;;;;;3.72;100.00;101343.91;5006285;28;20226;-72
2022/12/27 02:30:19;;;;;;;2.17;1.20;;;;;;;3.67;100.00;101343.91;5006155;28;20190;-72
2022/12/27 02:33:02;;;;;;;3.85;2.00;;;;;;;3.67;100.00;101351.03;5014430;28;20207;-73
2022/12/27 02:35:33;;;;;;;2.10;1.40;;;;;;;3.51;100.00;101361.69;5005154;28;20195;-73
2022/12/27 02:38:06;;;;;;;2.53;1.40;;;;;;;3.38;100.00;101359.06;5012769;28;20219;-72
2022/12/27 02:55:08;;;;;;;4.45;1.50;;;;;;;2.96;100.00;101380.31;4994313;28;20270;-73
2022/12/27 02:57:42;;;;;;;6.80;1.83;;;;;;;2.93;100.00;101389.19;4915105;29;20716;-72
2022/12/27 03:03:28;;;;;;;1.85;1.30;;;;;;;2.96;100.00;101385.63;4935462;29;20211;-73
2022/12/27 03:15:55;;;;;;;4.35;2.10;;;;;;;2.79;100.00;101376.75;4823091;29;20760;-73
2022/12/27 03:18:33;;;;;;;4.25;1.60;;;;;;;2.78;100.00;101370.56;4822219;29;20217;-73
2022/12/27 03:26:36;;;;;;;2.70;1.30;;;;;;;2.54;100.00;101363.38;4822627;29;20253;-72
2022/12/27 03:34:45;;;;;;;6.65;1.70;;;;;;;2.42;100.00;101377.53;4845900;29;20222;-75
2022/12/27 03:40:06;;;;;;;1.95;1.23;;;;;;;2.43;100.00;101373.97;4869966;29;20222;-73
2022/12/27 03:46:32;;;;;;;7.75;1.42;;;;;;;2.47;100.00;101386.41;4948957;28;20198;-74
2022/12/27 03:48:11;;;;;;;3.15;1.40;;;;;;;2.36;100.00;101385.47;5016934;28;20226;-74
2022/12/27 03:50:46;;;;;;;2.08;1.27;;;;;;;2.33;100.00;101387.22;4999678;28;20195;-71
2022/12/27 03:53:19;;;;;;;3.30;2.42;;;;;;;2.24;100.00;101388.97;4995492;28;20191;-74
2022/12/27 03:55:45;;;;;;;4.28;1.58;;;;;;;2.22;100.00;101390.72;5009637;28;20195;-73
2022/12/27 03:58:12;;;;;;;3.10;1.40;;;;;;;2.19;100.00;101390.69;5013887;28;20249;-72
2022/12/27 04:00:39;;;;;;;2.40;1.70;;;;;;;2.22;100.00;101390.72;4999602;28;20202;-73
2022/12/27 04:03:05;;;;;;;8.35;1.80;;;;;;;2.26;100.00;101381.91;5000165;28;20206;-72
2022/12/27 04:05:32;;;;;;;4.25;1.80;;;;;;;2.24;100.00;101388.97;4995132;28;20211;-72
2022/12/27 04:35:23;;;;;;;2.58;1.48;;;;;;;2.20;100.00;101388.97;5004883;28;20205;-73
2022/12/27 04:37:49;;;;;;;6.10;1.73;;;;;;;2.20;100.00;101380.97;5015704;28;20399;-72
2022/12/27 04:57:00;;;;;;;3.38;1.70;;;;;;;2.04;100.00;101391.53;4932975;29;20252;-73
2022/12/27 05:02:10;;;;;;;3.38;2.10;;;;;;;2.06;100.00;101394.22;4937252;29;20801;-73
2022/12/27 05:04:38;;;;;;;5.57;1.85;;;;;;;2.08;100.00;101403.03;4952139;29;20909;-73
2022/12/27 05:15:17;;;;;;;4.05;2.28;;;;;;;2.03;100.00;101408.34;4954339;29;20203;-70
2022/12/27 05:17:43;;;;;;;6.47;1.88;;;;;;;2.06;100.00;101410.16;4952559;28;20224;-71
2022/12/27 05:20:11;;;;;;;6.70;2.28;;;;;;;2.05;100.00;101411.00;4952394;29;20237;-71
2022/12/27 05:25:37;;;;;;;4.65;2.28;;;;;;;2.02;100.00;101419.84;4954021;29;20210;-71
2022/12/27 05:28:07;;;;;;;6.28;2.15;;;;;;;2.00;100.00;101420.72;4967289;28;20238;-71
2022/12/27 05:30:33;;;;;;;3.03;2.00;;;;;;;2.06;100.00;101424.31;5003141;28;20201;-71
2022/12/27 05:33:00;;;;;;;7.32;2.00;;;;;;;2.09;100.00;101426.97;5013421;28;20205;-72
2022/12/27 05:35:27;;;;;;;2.20;1.70;;;;;;;2.06;100.00;101431.41;5006210;28;20195;-70
2022/12/27 05:37:54;;;;;;;4.22;2.42;;;;;;;2.12;100.00;101430.53;5011683;28;20221;-70
2022/12/27 05:40:21;;;;;;;2.97;2.17;;;;;;;2.08;100.00;101429.63;5004370;28;20256;-71
2022/12/27 05:42:47;;;;;;;4.22;2.33;;;;;;;2.07;100.00;101422.53;5004763;28;20206;-71
2022/12/27 05:45:16;;;;;;;3.90;2.72;;;;;;;2.10;100.00;101433.19;5011287;28;20201;-71
2022/12/27 05:47:42;;;;;;;9.15;2.40;;;;;;;2.08;100.00;101437.59;5012256;28;20241;-72
2022/12/27 05:50:10;;;;;;;10.95;2.28;;;;;;;2.23;100.00;101440.34;5002203;28;20209;-71
2022/12/27 05:52:37;;;;;;;4.25;2.60;;;;;;;2.18;100.00;101446.53;5012709;28;20205;-71
2022/12/27 05:55:03;;;;;;;3.53;2.53;;;;;;;2.21;100.00;101441.22;5006953;28;20198;-70
2022/12/27 05:57:30;;;;;;;8.23;3.60;;;;;;;2.25;100.00;101453.66;5007395;28;20247;-69
2022/12/27 05:59:56;;;;;;;6.13;2.60;;;;;;;2.27;100.00;101451.91;4996337;28;20205;-71
2022/12/27 06:02:24;;;;;;;6.95;2.85;;;;;;;2.24;100.00;101454.56;4990705;28;20230;-73
2022/12/27 06:04:51;;;;;;;6.32;3.05;;;;;;;2.23;100.00;101443.00;5019019;28;20213;-71
2022/12/27 06:07:17;;;;;;;12.88;2.60;;;;;;;2.29;100.00;101451.03;5013801;28;20228;-72
2022/12/27 06:09:44;;;;;;;9.80;4.13;;;;;;;2.26;100.00;101450.09;5005417;28;20604;-70
2022/12/27 06:12:10;;;;;;;5.88;3.35;;;;;;;2.28;100.00;101459.91;5011492;28;20550;-70
2022/12/27 06:14:37;;;;;;;5.60;2.70;;;;;;;2.24;100.00;101465.19;5013612;28;20238;-69
2022/12/27 06:17:04;;;;;;;6.35;3.55;;;;;;;2.19;100.00;101470.44;5009098;28;20228;-73
2022/12/27 06:19:31;;;;;;;7.70;3.40;;;;;;;2.22;100.00;101474.91;5008987;28;20210;-71
2022/12/27 06:21:58;;;;;;;6.20;2.80;;;;;;;2.21;100.00;101468.69;5005046;28;20229;-71
2022/12/27 06:24:25;;;;;;;5.97;3.60;;;;;;;2.23;100.00;101477.56;5025525;28;20265;-72
2022/12/27 06:26:51;;;;;;;9.10;3.80;;;;;;;2.28;100.00;101467.88;5017100;28;20229;-71
2022/12/27 06:29:18;;;;;;;9.25;3.17;;;;;;;2.31;100.00;101482.94;5015388;28;20563;-73
2022/12/27 06:31:44;;;;;;;5.10;3.05;;;;;;;2.42;100.00;101482.97;5017083;28;20220;-72
2022/12/27 06:34:11;;;;;;;6.43;3.97;;;;;;;2.49;100.00;101492.78;5016437;28;20717;-71
2022/12/27 06:36:39;;;;;;;7.25;2.90;;;;;;;2.57;100.00;101491.03;4999854;28;20366;-72
2022/12/27 06:39:05;;;;;;;14.68;4.53;;;;;;;2.57;100.00;101479.53;4999266;28;20204;-72
2022/12/27 06:41:32;;;;;;;8.95;4.45;;;;;;;2.61;100.00;101479.53;5011622;28;20207;-71
2022/12/27 06:43:59;;;;;;;10.52;3.90;;;;;;;2.61;100.00;101490.19;5013603;28;20268;-70
2022/12/27 06:46:26;;;;;;;7.60;3.33;;;;;;;2.56;100.00;101483.97;5015956;28;20197;-71
2022/12/27 06:48:53;;;;;;;8.77;3.78;;;;;;;2.52;100.00;101471.53;5013159;28;20535;-70
2022/12/27 06:51:21;;;;;;;7.82;3.67;;;;;;;2.53;100.00;101477.72;5019938;28;20252;-70
2022/12/27 06:53:49;;;;;;;7.30;3.67;;;;;;;2.53;100.00;101473.28;5016360;28;20209;-71
2022/12/27 06:56:17;;;;;;;4.55;3.47;;;;;;;2.53;100.00;101473.28;5003633;28;20641;-71
2022/12/27 06:58:44;;;;;;;6.40;4.47;;;;;;;2.50;100.00;101465.31;5015856;28;20195;-72
2022/12/27 07:01:13;;;;;;;6.40;3.63;;;;;;;2.55;100.00;101478.63;5006243;28;20578;-72
2022/12/27 07:03:40;;;;;;;7.55;4.00;;;;;;;2.48;100.00;101470.59;5008654;28;20288;-71
2022/12/27 07:06:10;;;;;;;5.70;3.95;;;;;;;2.41;100.00;101476.78;5013401;28;20202;-71
2022/12/27 07:08:36;;;;;;;6.25;2.90;;;;;;;2.41;100.00;101470.56;4999928;28;20708;-71
2022/12/27 07:11:06;;;;;;;8.20;3.30;;;;;;;2.38;100.00;101470.56;5015588;28;20651;-71
2022/12/27 07:13:33;;;;;;;6.97;3.58;;;;;;;2.45;100.00;101480.34;5002046;28;20202;-71
2022/12/27 07:16:00;;;;;;;14.00;4.80;;;;;;;2.41;100.00;101482.09;5013721;28;20344;-73
2022/12/27 07:18:26;;;;;;;6.28;3.60;;;;;;;2.44;100.00;101491.84;5014433;28;20222;-71
2022/12/27 07:20:53;;;;;;;5.78;3.78;;;;;;;2.48;100.00;101498.97;5011418;28;20202;-71
2022/12/27 07:23:19;;;;;;;6.55;3.53;;;;;;;2.49;100.00;101496.34;5013767;28;20202;-72
2022/12/27 07:25:46;;;;;;;6.78;3.75;;;;;;;2.54;100.00;101499.03;5017914;28;20200;-72
2022/12/27 07:28:14;;;;;;;9.38;4.35;;;;;;;2.48;100.00;101502.50;5002714;28;20719;-70
2022/12/27 07:30:41;;;;;;;7.57;3.55;;;;;;;2.53;100.00;101499.88;5009564;28;20210;-70
2022/12/27 07:33:08;;;;;;;8.95;3.55;;;;;;;2.48;100.00;101505.19;5014140;28;20194;-69
2022/12/27 07:35:34;;;;;;;8.20;4.35;;;;;;;2.53;100.00;101499.00;5000064;28;20213;-70
2022/12/27 07:38:01;;;;;;;10.05;3.05;;;;;;;2.55;100.00;101497.25;4999747;28;20220;-69
2022/12/27 07:40:27;;;;;;;8.82;3.75;;;;;;;2.53;100.00;101501.66;5028933;28;20270;-72
2022/12/27 07:42:54;;;;;;;7.88;4.13;;;;;;;2.62;100.00;101507.03;5014273;28;20876;-73
2022/12/27 07:45:22;;;;;;;9.75;4.57;;;;;;;2.62;100.00;101499.03;4997948;28;20208;-72
2022/12/27 07:47:48;;;;;;;11.18;5.80;;;;;;;2.65;100.00;101505.28;4996810;28;20230;-71
2022/12/27 07:50:15;;;;;;;8.60;4.10;;;;;;;2.62;100.00;101515.91;4997824;28;20230;-71
2022/12/27 07:52:41;;;;;;;8.13;3.55;;;;;;;2.68;100.00;101518.59;5009922;28;20208;-72
2022/12/27 07:55:08;;;;;;;10.68;4.88;;;;;;;2.80;100.00;101523.06;5015836;28;20203;-72
2022/12/27 07:57:35;;;;;;;18.27;5.88;;;;;;;2.78;100.00;101526.59;5015288;28;20225;-73
2022/12/27 08:00:02;;;;;;;6.78;3.35;;;;;;;2.78;100.00;101537.25;5015125;28;20684;-72
2022/12/27 08:02:29;;;;;;;10.25;3.95;;;;;;;2.85;100.00;101534.63;5016330;28;20287;-73
2022/12/27 08:04:56;;;;;;;8.02;4.47;;;;;;;3.00;100.00;101541.78;5018654;28;20210;-73
2022/12/27 08:07:24;;;;;;;6.07;3.50;;;;;;;3.28;100.00;101541.91;5002146;28;20230;-71
2022/12/27 08:09:51;;;;;;;6.65;4.05;;;;;;;3.48;100.00;101539.25;4994035;28;20596;-72
2022/12/27 08:12:17;;;;;;;11.07;4.95;;;;;;;3.96;100.00;101537.56;4996655;28;20207;-73
2022/12/27 08:14:44;;;;;;;9.50;3.08;;;;;;;4.32;100.00;101541.97;5013512;28;20210;-74
2022/12/27 08:17:16;;;;;;;6.95;3.08;;;;;;;4.42;100.00;101533.94;5014079;28;20234;-71
2022/12/27 08:19:44;;;;;;;5.25;3.10;;;;;;;4.81;100.00;101540.94;4994666;28;20191;-73
2022/12/27 08:22:10;;;;;;;8.20;3.00;;;;;;;5.23;100.00;101537.19;4996793;28;20214;-72
2022/12/27 08:24:39;;;;;;;4.22;2.97;;;;;;;5.41;100.00;101538.88;4998622;28;20638;-72
2022/12/27 08:27:06;;;;;;;90.47;53.20;;;;;;;5.98;100.00;101543.88;4999953;28;20254;-70
2022/12/27 08:29:32;;;;;;;9.10;3.85;;;;;;;5.74;100.00;101542.22;4994508;28;20238;-71
2022/12/27 08:31:59;;;;;;;5.47;3.35;;;;;;;5.76;100.00;101547.56;4994676;28;20572;-72
2022/12/27 08:34:25;;;;;;;5.38;2.80;;;;;;;5.67;100.00;101539.63;5010020;28;20207;-73
2022/12/27 08:36:53;;;;;;;8.93;3.33;;;;;;;5.75;100.00;101540.47;5014349;28;20222;-72
2022/12/27 08:39:20;;;;;;;8.50;3.20;;;;;;;5.76;100.00;101547.56;5013177;28;20236;-70
2022/12/27 08:41:47;;;;;;;5.88;3.33;;;;;;;6.02;100.00;101552.75;5013571;28;20202;-71
2022/12/27 08:44:13;;;;;;;6.78;3.15;;;;;;;6.14;100.00;101547.28;5000896;28;20246;-72
2022/12/27 08:46:40;;;;;;;4.18;2.63;;;;;;;6.38;100.00;101559.56;4993409;28;20223;-71
2022/12/27 08:49:06;;;;;;;5.30;2.63;;;;;;;6.41;100.00;101553.28;5009461;28;20218;-71
2022/12/27 08:51:33;;;;;;;11.73;4.18;;;;;;;6.74;100.00;101565.47;4998941;28;20378;-72
2022/12/27 08:54:01;;;;;;;9.65;3.50;;;;;;;6.73;100.00;101562.78;4993296;28;20210;-73
2022/12/27 08:56:27;;;;;;;6.88;3.03;;;;;;;7.04;100.00;101557.97;4993269;28;20374;-72
2022/12/27 08:58:54;;;;;;;5.53;3.17;;;;;;;6.95;100.00;101558.97;5004145;28;20198;-71
2022/12/27 09:01:21;;;;;;;6.68;3.80;;;;;;;7.25;100.00;101560.34;5004707;28;20225;-71
2022/12/27 09:03:47;;;;;;;8.00;3.88;;;;;;;7.48;100.00;101575.22;5024569;28;20187;-72
2022/12/27 09:06:16;;;;;;;8.43;3.22;;;;;;;7.96;100.00;101575.44;5024311;28;20668;-71
2022/12/27 09:08:43;;;;;;;5.05;3.17;;;;;;;8.20;100.00;101558.03;5012221;28;20227;-70
2022/12/27 09:11:14;;;;;;;9.02;3.60;;;;;;;8.30;100.00;101578.44;5011305;28;20199;-70
2022/12/27 09:13:41;;;;;;;7.90;3.50;;;;;;;8.04;100.00;101573.50;5013246;28;20191;-71
2022/12/27 09:16:09;;;;;;;5.25;2.83;;;;;;;8.09;100.00;101576.09;5013153;28;20206;-71
2022/12/27 09:18:36;;;;;;;12.02;3.60;;;;;;;8.51;100.00;101579.00;5007631;28;20301;-72
2022/12/27 09:21:05;;;;;;;6.55;2.85;;;;;;;8.51;100.00;101563.78;5013667;28;20213;-71
2022/12/27 09:23:32;;;;;;;6.45;3.10;;;;;;;8.76;100.00;101577.63;5014123;28;20222;-72
2022/12/27 09:25:58;;;;;;;6.55;3.83;;;;;;;8.48;100.00;101581.72;5015982;28;20202;-71
2022/12/27 09:28:26;;;;;;;4.15;3.00;;;;;;;8.58;100.00;101587.84;5014766;28;20340;-72
2022/12/27 09:30:52;;;;;;;6.47;3.13;;;;;;;8.79;100.00;101574.00;5014890;28;20241;-70
2022/12/27 09:33:19;;;;;;;6.10;2.80;;;;;;;8.34;100.00;101568.53;5013625;28;20203;-71
2022/12/27 09:35:46;;;;;;;4.32;2.50;;;;;;;8.68;100.00;101557.19;5012484;28;20202;-71
2022/12/27 09:38:12;;;;;;;8.85;2.75;;;;;;;8.79;100.00;101563.25;5012068;28;20234;-71
2022/12/27 09:40:39;;;;;;;4.43;2.97;;;;;;;8.48;100.00;101558.47;5013091;28;20198;-71
2022/12/27 09:43:08;;;;;;;5.20;2.67;;;;;;;9.18;100.00;101566.06;5013492;28;20209;-71
2022/12/27 09:45:41;;;;;;;4.65;2.15;;;;;;;8.70;100.00;101567.00;5012502;28;20641;-72
2022/12/27 09:48:13;;;;;;;5.82;3.05;;;;;;;8.89;100.00;101569.34;4992644;28;20219;-71
2022/12/27 09:50:47;;;;;;;5.85;3.17;;;;;;;9.02;100.00;101569.97;4994282;28;20207;-70
2022/12/27 09:53:17;;;;;;;5.40;2.75;;;;;;;9.32;100.00;101587.28;4993258;28;20218;-71
2022/12/27 09:55:48;;;;;;;10.07;2.80;;;;;;;9.22;100.00;101593.75;4993741;28;20203;-71
2022/12/27 09:58:32;;;;;;;6.25;3.25;;;;;;;9.30;100.00;101590.00;4996001;28;20223;-72
2022/12/27 10:01:11;;;;;;;54.80;32.00;;;;;;;9.82;100.00;101587.97;4998054;28;20194;-72
2022/12/27 10:03:38;;;;;;;7.05;2.90;;;;;;;8.75;100.00;101588.41;4996766;28;20195;-70
2022/12/27 10:06:16;;;;;;;5.20;3.08;;;;;;;8.60;100.00;101580.66;5002673;28;20282;-71
2022/12/27 10:08:51;;;;;;;5.60;3.05;;;;;;;8.29;100.00;101591.88;5014061;28;20194;-74
2022/12/27 10:11:38;;;;;;;6.07;3.28;;;;;;;8.60;100.00;101596.75;5019910;28;20186;-72
2022/12/27 10:14:27;;;;;;;7.50;3.33;;;;;;;8.86;100.00;101583.72;5020621;28;20191;-73
2022/12/27 10:17:03;;;;;;;10.88;3.60;;;;;;;8.83;100.00;101582.91;5007842;28;20219;-72
2022/12/27 10:19:41;;;;;;;5.15;3.42;;;;;;;9.14;100.00;101584.06;5019359;28;20202;-71
2022/12/27 10:22:21;;;;;;;6.53;3.08;;;;;;;9.00;100.00;101583.47;5011527;28;20250;-72
2022/12/27 10:24:52;;;;;;;9.20;4.15;;;;;;;9.16;100.00;101581.34;5001626;28;20668;-71
2022/12/27 10:27:22;;;;;;;7.88;3.70;;;;;;;9.14;100.00;101580.50;4983472;28;20595;-71
2022/12/27 10:29:52;;;;;;;5.10;3.35;;;;;;;8.44;100.00;101574.69;5014220;28;20720;-72
2022/12/27 10:32:20;;;;;;;5.35;3.65;;;;;;;8.75;100.00;101572.28;5026492;28;20209;-69
2022/12/27 10:34:52;;;;;;;7.78;3.10;;;;;;;8.83;100.00;101572.16;5033064;28;20272;-70
2022/12/27 10:37:18;;;;;;;6.57;3.67;;;;;;;8.20;100.00;101559.84;5026901;28;20223;-73
2022/12/27 10:39:45;;;;;;;6.35;3.90;;;;;;;8.39;100.00;101572.03;5023598;28;20267;-71
2022/12/27 10:42:24;;;;;;;9.30;3.40;;;;;;;9.00;100.00;101575.41;5020046;28;20202;-70
2022/12/27 10:44:50;;;;;;;5.55;3.22;;;;;;;8.76;100.00;101568.69;4999699;28;20650;-71
2022/12/27 10:47:17;;;;;;;5.45;3.50;;;;;;;8.41;100.00;101574.72;5004120;28;20221;-75
2022/12/27 10:50:03;;;;;;;4.30;3.70;;;;;;;8.27;100.00;101583.84;5025373;28;20218;-74
2022/12/27 10:52:34;;;;;;;8.70;4.10;;;;;;;7.60;100.00;101585.81;5025938;28;20190;-74
2022/12/27 10:55:00;;;;;;;7.78;4.05;;;;;;;7.13;100.00;101584.63;5026161;28;20179;-71
2022/12/27 10:57:29;;;;;;;8.20;3.95;;;;;;;6.81;100.00;101572.50;5027490;28;20236;-71
2022/12/27 11:00:14;;;;;;;9.52;3.83;;;;;;;6.95;100.00;101576.81;5029066;28;20197;-72
2022/12/27 11:02:49;;;;;;;8.18;3.70;;;;;;;6.80;100.00;101577.88;5022054;28;20225;-70
2022/12/27 11:05:21;;;;;;;6.68;3.90;;;;;;;6.56;100.00;101582.59;5024427;28;20202;-71
2022/12/27 11:07:47;;;;;;;8.10;3.92;;;;;;;6.93;100.00;101574.16;5048403;23;20230;-72
2022/12/27 11:10:17;;;;;;;4.75;3.30;;;;;;;7.25;100.00;101584.47;5007688;28;20309;-74
2022/12/27 11:12:58;;;;;;;8.77;4.15;;;;;;;8.06;100.00;101570.81;5020150;28;20250;-72
2022/12/27 11:15:26;;;;;;;5.93;3.88;;;;;;;8.19;100.00;101571.50;5018497;28;20277;-73
2022/12/27 11:17:55;;;;;;;5.00;3.80;;;;;;;7.56;100.00;101576.03;5017775;28;20394;-72
2022/12/27 11:20:24;;;;;;;7.13;4.47;;;;;;;6.61;100.00;101574.50;5019238;28;20198;-74
2022/12/27 11:22:53;;;;;;;10.10;4.15;;;;;;;6.76;100.00;101578.81;5018636;28;20210;-74
2022/12/27 11:25:21;;;;;;;8.90;5.00;;;;;;;6.97;100.00;101566.97;5016983;28;20220;-74
2022/12/27 11:27:51;;;;;;;7.93;4.68;;;;;;;7.49;100.00;101569.00;5015723;28;20219;-73
2022/12/27 11:30:23;;;;;;;10.50;4.50;;;;;;;7.56;100.00;101569.78;5015635;28;20226;-74
2022/12/27 11:32:50;;;;;;;8.90;4.22;;;;;;;7.30;100.00;101573.69;5023828;28;20195;-74
2022/12/27 11:35:18;;;;;;;9.00;4.50;;;;;;;7.38;100.00;101561.09;5031732;28;20298;-72
2022/12/27 11:37:48;;;;;;;8.57;5.05;;;;;;;7.30;100.00;101562.97;5019390;28;20576;-72
2022/12/27 11:40:24;;;;;;;9.15;5.78;;;;;;;6.77;100.00;101560.06;5018985;28;20199;-75
2022/12/27 11:42:55;;;;;;;55.28;32.60;;;;;;;6.68;100.00;101569.06;5020545;28;20213;-74
2022/12/27 11:45:26;;;;;;;19.58;12.10;;;;;;;6.75;100.00;101569.88;5021151;28;20274;-76
2022/12/27 11:47:59;;;;;;;9.60;5.63;;;;;;;6.54;100.00;101570.13;5018694;28;20604;-75
2022/12/27 11:50:47;;;;;;;9.23;5.50;;;;;;;6.28;100.00;101565.91;5021225;28;20226;-75
2022/12/27 11:53:52;;;;;;;8.82;5.28;;;;;;;6.24;100.00;101558.78;5017533;28;20203;-75
2022/12/27 11:56:24;;;;;;;10.50;5.78;;;;;;;6.12;100.00;101565.13;5014122;28;20213;-75
2022/12/27 11:59:11;;;;;;;9.23;5.80;;;;;;;6.39;100.00;101573.81;5015681;28;20233;-76
2022/12/27 12:01:57;;;;;;;6.88;4.78;;;;;;;6.38;100.00;101567.59;5001602;28;20277;-74
2022/12/27 12:05:11;;;;;;;6.30;4.85;;;;;;;6.73;100.00;101557.44;5005297;28;20636;-75
2022/12/27 12:07:57;;;;;;;10.40;5.10;;;;;;;7.24;100.00;101545.19;4996318;28;20231;-76
2022/12/27 12:10:36;;;;;;;6.88;5.13;;;;;;;8.00;100.00;101541.38;4996691;28;20207;-73
2022/12/27 12:13:35;;;;;;;8.52;4.40;;;;;;;8.31;100.00;101541.75;5012889;28;20191;-74
2022/12/27 12:16:40;;;;;;;6.25;4.03;;;;;;;7.98;100.00;101535.16;5017000;28;20676;-73
2022/12/27 12:19:19;;;;;;;10.95;4.38;;;;;;;8.55;100.00;101535.09;4949964;29;20268;-74
2022/12/27 12:21:56;;;;;;;6.40;4.10;;;;;;;8.88;100.00;101543.38;4950163;29;20211;-73
2022/12/27 12:25:10;;;;;;;6.97;4.03;;;;;;;8.59;100.00;101542.16;4953290;29;20679;-74
2022/12/27 12:27:49;;;;;;;7.18;3.15;;;;;;;9.46;100.00;101549.34;4928311;28;20218;-75
2022/12/27 12:30:49;;;;;;;8.90;4.13;;;;;;;9.94;100.00;101543.72;4934890;29;20308;-75
2022/12/27 12:33:41;;;;;;;8.68;3.88;;;;;;;10.66;100.00;101541.00;4934800;29;20225;-74
2022/12/27 12:36:27;;;;;;;8.73;3.70;;;;;;;11.22;100.00;101549.28;4935560;29;20209;-74
2022/12/27 12:39:02;;;;;;;7.40;4.10;;;;;;;9.50;100.00;101561.81;4935610;29;20217;-75
2022/12/27 12:41:50;;;;;;;8.05;4.00;;;;;;;8.05;100.00;101544.88;4916875;29;20729;-75
2022/12/27 12:44:49;;;;;;;7.80;3.70;;;;;;;7.23;100.00;101554.13;4919748;29;20197;-76
2022/12/27 12:47:37;;;;;;;7.25;3.58;;;;;;;6.84;100.00;101551.03;4843193;29;20234;-76
2022/12/27 12:50:21;;;;;;;6.13;3.70;;;;;;;7.60;100.00;101542.00;4841583;29;20240;-75
2022/12/27 12:53:00;;;;;;;5.00;3.25;;;;;;;7.76;100.00;101526.59;4842375;29;20250;-77
2022/12/27 12:55:37;;;;;;;6.55;3.45;;;;;;;9.19;100.00;101536.44;4855333;29;20209;-77
2022/12/27 12:58:19;;;;;;;5.25;2.80;;;;;;;10.44;100.00;101528.09;4935144;29;20224;-75
2022/12/27 13:01:12;;;;;;;8.15;3.42;;;;;;;10.55;100.00;101531.38;4916307;29;20201;-74
2022/12/27 13:03:56;;;;;;;5.53;2.60;;;;;;;9.99;100.00;101534.63;4920622;29;20193;-74
2022/12/27 13:06:53;;;;;;;7.30;3.45;;;;;;;9.90;100.00;101526.75;4937482;29;20177;-75
2022/12/27 13:09:34;;;;;;;5.68;3.20;;;;;;;8.53;100.00;101531.53;4950220;29;20253;-75
2022/12/27 13:12:07;;;;;;;5.82;3.05;;;;;;;7.84;100.00;101527.34;4955074;29;20204;-75
2022/12/27 13:14:53;;;;;;;9.63;3.70;;;;;;;7.26;100.00;101527.31;4954631;29;20645;-75
2022/12/27 13:17:35;;;;;;;7.32;3.50;;;;;;;6.95;100.00;101536.66;4953998;29;20229;-76
2022/12/27 13:20:23;;;;;;;6.88;2.78;;;;;;;6.83;100.00;101538.56;4941572;29;20775;-74
2022/12/27 13:23:02;;;;;;;6.75;3.00;;;;;;;6.72;100.00;101536.94;4935125;29;20280;-75
2022/12/27 13:25:41;;;;;;;4.97;3.10;;;;;;;6.93;100.00;101546.50;5016160;28;20583;-74
2022/12/27 13:28:22;;;;;;;7.07;3.30;;;;;;;7.09;100.00;101530.19;5016632;28;20317;-74